Time;durP1;ratioP1;P1;durP2;ratioP2;P2;SDS_P1;SDS_P2;PMS_P1;PMS_P2;Temp;Humidity;BMP_temperature;BMP_pressure;BME280_temperature;BME280_humidity;BME280_pressure;Samples;Min_cycle;Max_cycle;Signal;HPM_P1;HPM_P2
2024/03/04 00:00:56;;;;;;;24.40;12.93;;;;;;;;;;5049366;28;20036;-81
2024/03/04 00:03:23;;;;;;;26.50;13.10;;;;;;;;;;5099245;28;20024;-81
2024/03/04 00:05:49;;;;;;;21.95;11.70;;;;;;;;;;5067483;28;20047;-80
2024/03/04 00:08:14;;;;;;;24.90;12.25;;;;;;;;;;5066926;28;20092;-80
2024/03/04 00:10:42;;;;;;;23.45;12.40;;;;;;;;;;5083913;28;20035;-80
2024/03/04 00:13:08;;;;;;;22.98;12.63;;;;;;;;;;5070516;28;20029;-80
2024/03/04 00:15:33;;;;;;;23.10;13.00;;;;;;;;;;5066545;28;20028;-81
2024/03/04 00:17:59;;;;;;;23.33;11.95;;;;;;;;;;5047563;28;20029;-80
2024/03/04 00:20:27;;;;;;;22.23;12.02;;;;;;;;;;5081586;28;20031;-79
2024/03/04 00:22:52;;;;;;;24.17;11.25;;;;;;;;;;5050231;28;20115;-79
2024/03/04 00:25:18;;;;;;;20.88;11.77;;;;;;;;;;5067170;28;20029;-80
2024/03/04 00:27:44;;;;;;;25.30;12.13;;;;;;;;;;5049529;28;20028;-81
2024/03/04 00:30:11;;;;;;;25.77;12.50;;;;;;;;;;5057814;28;20029;-80
2024/03/04 00:32:41;;;;;;;26.33;12.48;;;;;;;;;;5065874;28;20057;-79
2024/03/04 00:35:09;;;;;;;24.98;12.27;;;;;;;;;;5066067;28;20033;-81
2024/03/04 00:37:36;;;;;;;22.52;11.63;;;;;;;;;;5081793;28;20028;-80
2024/03/04 00:40:05;;;;;;;21.42;11.25;;;;;;;;;;5048577;28;20025;-81
2024/03/04 00:42:32;;;;;;;19.55;10.88;;;;;;;;;;5049607;28;20059;-81
2024/03/04 00:44:58;;;;;;;24.08;12.77;;;;;;;;;;5064632;28;20049;-81
2024/03/04 00:47:23;;;;;;;21.92;11.63;;;;;;;;;;5048780;28;20088;-80
2024/03/04 00:49:50;;;;;;;21.17;11.65;;;;;;;;;;5088915;28;20028;-80
2024/03/04 00:52:17;;;;;;;23.27;12.73;;;;;;;;;;5051005;28;20095;-79
2024/03/04 00:54:43;;;;;;;22.75;12.15;;;;;;;;;;5077073;28;20029;-80
2024/03/04 00:57:09;;;;;;;23.10;11.90;;;;;;;;;;5082177;28;20544;-80
2024/03/04 00:59:36;;;;;;;23.35;11.57;;;;;;;;;;5062901;28;20028;-80
2024/03/04 01:02:06;;;;;;;27.23;12.27;;;;;;;;;;5066314;28;20040;-81
2024/03/04 01:04:32;;;;;;;23.00;11.75;;;;;;;;;;5050056;28;20024;-81
2024/03/04 01:06:57;;;;;;;24.08;12.88;;;;;;;;;;5049835;28;20561;-81
2024/03/04 01:09:23;;;;;;;24.48;12.25;;;;;;;;;;5065028;28;20032;-80
2024/03/04 01:11:49;;;;;;;24.00;11.95;;;;;;;;;;5064681;28;20032;-80
2024/03/04 01:14:16;;;;;;;24.40;13.25;;;;;;;;;;5049117;28;20408;-80
2024/03/04 01:16:41;;;;;;;24.98;12.38;;;;;;;;;;5065161;28;20036;-80
2024/03/04 01:19:07;;;;;;;24.52;12.65;;;;;;;;;;5081356;28;20021;-80
2024/03/04 01:21:32;;;;;;;30.38;14.23;;;;;;;;;;5064941;28;20043;-80
2024/03/04 01:23:58;;;;;;;26.40;13.65;;;;;;;;;;5065814;28;20036;-78
2024/03/04 01:26:23;;;;;;;27.02;13.68;;;;;;;;;;5072163;28;20075;-80
2024/03/04 01:28:49;;;;;;;26.98;13.60;;;;;;;;;;5078219;28;20025;-80
2024/03/04 01:31:18;;;;;;;25.17;13.77;;;;;;;;;;5083100;28;20021;-81
2024/03/04 01:33:47;;;;;;;23.65;13.05;;;;;;;;;;5065352;28;20012;-80
2024/03/04 01:36:12;;;;;;;27.48;14.30;;;;;;;;;;5092698;28;20040;-79
2024/03/04 01:38:38;;;;;;;27.65;13.85;;;;;;;;;;5098890;28;20020;-79
2024/03/04 01:41:04;;;;;;;28.55;13.93;;;;;;;;;;5063222;28;20147;-80
2024/03/04 01:43:30;;;;;;;30.30;14.32;;;;;;;;;;5087711;28;20106;-80
2024/03/04 01:45:57;;;;;;;26.70;14.60;;;;;;;;;;5052475;28;20110;-79
2024/03/04 01:48:23;;;;;;;26.50;14.80;;;;;;;;;;5048204;28;20488;-79
2024/03/04 01:50:51;;;;;;;25.48;12.90;;;;;;;;;;5047616;28;20043;-80
2024/03/04 01:53:17;;;;;;;24.98;12.95;;;;;;;;;;5047700;28;20032;-79
2024/03/04 01:55:45;;;;;;;22.75;12.57;;;;;;;;;;5064523;28;20021;-81
2024/03/04 01:58:17;;;;;;;26.70;13.68;;;;;;;;;;5048594;28;20132;-80
2024/03/04 02:00:44;;;;;;;24.90;13.07;;;;;;;;;;5048639;28;20067;-80
2024/03/04 02:03:12;;;;;;;25.23;14.02;;;;;;;;;;5066644;28;20475;-79
2024/03/04 02:05:38;;;;;;;27.63;12.88;;;;;;;;;;5063131;28;20290;-80
2024/03/04 02:08:05;;;;;;;22.98;12.57;;;;;;;;;;5062669;28;20036;-81
2024/03/04 02:10:31;;;;;;;22.38;12.30;;;;;;;;;;5063378;28;20052;-79
2024/03/04 02:12:58;;;;;;;25.85;14.30;;;;;;;;;;5064513;28;20122;-81
2024/03/04 02:15:24;;;;;;;20.92;11.95;;;;;;;;;;5046848;28;20059;-80
2024/03/04 02:17:50;;;;;;;24.25;12.70;;;;;;;;;;5064346;28;20054;-80
2024/03/04 02:20:18;;;;;;;22.15;12.02;;;;;;;;;;5091904;28;20024;-80
2024/03/04 02:22:45;;;;;;;23.75;11.85;;;;;;;;;;5084519;28;20055;-79
2024/03/04 02:25:12;;;;;;;22.45;12.13;;;;;;;;;;5082358;28;20035;-79
2024/03/04 02:27:37;;;;;;;23.27;12.27;;;;;;;;;;5099768;28;20020;-80
2024/03/04 02:30:04;;;;;;;26.08;12.93;;;;;;;;;;5066271;28;20044;-80
2024/03/04 02:32:29;;;;;;;25.45;11.98;;;;;;;;;;5067277;28;20054;-80
2024/03/04 02:34:55;;;;;;;24.20;13.30;;;;;;;;;;5098332;28;20032;-79
2024/03/04 02:37:21;;;;;;;27.92;13.02;;;;;;;;;;5079144;28;20027;-81
2024/03/04 02:39:47;;;;;;;24.77;13.38;;;;;;;;;;5063226;28;20088;-81
2024/03/04 02:42:13;;;;;;;27.08;13.40;;;;;;;;;;5062294;28;20077;-81
2024/03/04 02:44:39;;;;;;;22.77;13.18;;;;;;;;;;5062301;28;20044;-80
2024/03/04 02:47:04;;;;;;;26.77;13.70;;;;;;;;;;5062119;28;20040;-80
2024/03/04 02:49:30;;;;;;;28.30;13.23;;;;;;;;;;5045574;28;20032;-79
2024/03/04 02:51:57;;;;;;;22.83;12.70;;;;;;;;;;5045791;28;20032;-81
2024/03/04 02:54:23;;;;;;;24.95;12.63;;;;;;;;;;5062049;28;20089;-80
2024/03/04 02:56:50;;;;;;;24.60;13.07;;;;;;;;;;5062629;28;20527;-80
2024/03/04 02:59:15;;;;;;;24.55;13.27;;;;;;;;;;5063628;28;20032;-80
2024/03/04 03:01:41;;;;;;;26.77;13.18;;;;;;;;;;5063761;28;20059;-80
2024/03/04 03:04:07;;;;;;;22.90;11.85;;;;;;;;;;5046407;28;20032;-80
2024/03/04 03:06:33;;;;;;;26.80;13.05;;;;;;;;;;5045149;28;20091;-81
2024/03/04 03:08:59;;;;;;;24.50;11.98;;;;;;;;;;5047309;28;20036;-80
2024/03/04 03:11:24;;;;;;;21.65;11.77;;;;;;;;;;5082793;28;20107;-81
2024/03/04 03:13:50;;;;;;;22.52;12.35;;;;;;;;;;5060945;28;20036;-80
2024/03/04 03:16:22;;;;;;;27.33;12.77;;;;;;;;;;5054382;28;20024;-80
2024/03/04 03:18:49;;;;;;;27.05;12.90;;;;;;;;;;5045563;28;20037;-80
2024/03/04 03:21:17;;;;;;;24.92;13.38;;;;;;;;;;5044924;28;20028;-80
2024/03/04 03:23:44;;;;;;;23.73;11.85;;;;;;;;;;5061068;28;20044;-81
2024/03/04 03:26:10;;;;;;;27.10;12.52;;;;;;;;;;5075160;28;20562;-81
2024/03/04 03:28:40;;;;;;;26.77;12.73;;;;;;;;;;5061077;28;20063;-80
2024/03/04 03:31:06;;;;;;;23.50;13.38;;;;;;;;;;5044501;28;20035;-81
2024/03/04 03:33:33;;;;;;;26.90;13.60;;;;;;;;;;5060991;28;20041;-80
2024/03/04 03:35:58;;;;;;;26.42;13.10;;;;;;;;;;5078235;28;20452;-79
2024/03/04 03:38:24;;;;;;;26.20;12.70;;;;;;;;;;5061628;28;20029;-81
2024/03/04 03:40:50;;;;;;;24.27;12.73;;;;;;;;;;5045055;28;20032;-78
2024/03/04 03:43:17;;;;;;;23.23;11.93;;;;;;;;;;5063454;28;20036;-80
2024/03/04 03:45:43;;;;;;;29.02;13.70;;;;;;;;;;5063661;28;20032;-80
2024/03/04 03:48:09;;;;;;;29.15;14.75;;;;;;;;;;5096903;28;20097;-80
2024/03/04 03:50:35;;;;;;;29.92;13.25;;;;;;;;;;5081506;28;20062;-81
2024/03/04 03:53:01;;;;;;;27.98;12.60;;;;;;;;;;5065992;28;20036;-81
2024/03/04 03:55:26;;;;;;;24.40;12.95;;;;;;;;;;5066839;28;20032;-81
2024/03/04 03:57:52;;;;;;;23.33;12.90;;;;;;;;;;5068240;28;20047;-81
2024/03/04 04:00:18;;;;;;;26.10;13.38;;;;;;;;;;5087077;28;20063;-81
2024/03/04 04:02:44;;;;;;;26.23;12.82;;;;;;;;;;5069937;28;20036;-80
2024/03/04 04:05:09;;;;;;;26.63;13.43;;;;;;;;;;5066410;28;20020;-80
2024/03/04 04:07:37;;;;;;;24.10;11.75;;;;;;;;;;5052723;28;20044;-80
2024/03/04 04:10:04;;;;;;;23.70;12.38;;;;;;;;;;5069496;28;20035;-81
2024/03/04 04:12:30;;;;;;;26.45;14.35;;;;;;;;;;5068523;28;20043;-80
2024/03/04 04:14:58;;;;;;;27.15;13.85;;;;;;;;;;5067317;28;20430;-79
2024/03/04 04:17:23;;;;;;;23.50;12.65;;;;;;;;;;5067709;28;20123;-79
2024/03/04 04:19:50;;;;;;;29.13;14.43;;;;;;;;;;5084745;28;20067;-79
2024/03/04 04:22:17;;;;;;;27.05;13.93;;;;;;;;;;5081125;28;20111;-81
2024/03/04 04:24:42;;;;;;;23.75;13.00;;;;;;;;;;5049010;28;20043;-82
2024/03/04 04:27:08;;;;;;;24.35;12.45;;;;;;;;;;5076666;28;20044;-78
2024/03/04 04:29:34;;;;;;;24.48;13.05;;;;;;;;;;5083586;28;20012;-80
2024/03/04 04:32:00;;;;;;;23.77;13.02;;;;;;;;;;5083089;28;20025;-79
2024/03/04 04:34:25;;;;;;;24.65;13.65;;;;;;;;;;5083657;28;20033;-80
2024/03/04 04:36:51;;;;;;;28.55;13.63;;;;;;;;;;5066727;28;20033;-80
2024/03/04 04:39:17;;;;;;;23.95;13.95;;;;;;;;;;5085146;28;20020;-81
2024/03/04 04:41:46;;;;;;;29.63;14.65;;;;;;;;;;5046994;28;20029;-80
2024/03/04 04:44:12;;;;;;;31.27;14.98;;;;;;;;;;5083237;28;20043;-80
2024/03/04 04:46:38;;;;;;;30.23;14.25;;;;;;;;;;5058695;28;20044;-79
2024/03/04 04:49:04;;;;;;;29.38;14.43;;;;;;;;;;5030120;28;20399;-80
2024/03/04 04:51:31;;;;;;;27.00;13.55;;;;;;;;;;5064996;28;20044;-80
2024/03/04 04:54:00;;;;;;;31.15;14.88;;;;;;;;;;5067075;28;20040;-80
2024/03/04 04:56:28;;;;;;;33.08;14.98;;;;;;;;;;5066730;28;20024;-79
2024/03/04 04:58:54;;;;;;;29.00;14.35;;;;;;;;;;5068214;28;20039;-79
2024/03/04 05:01:24;;;;;;;26.27;13.90;;;;;;;;;;5083008;28;20032;-81
2024/03/04 05:03:52;;;;;;;25.63;13.43;;;;;;;;;;5082774;28;20047;-79
2024/03/04 05:06:22;;;;;;;25.30;13.70;;;;;;;;;;5072062;28;20032;-79
2024/03/04 05:08:49;;;;;;;28.92;14.13;;;;;;;;;;5062912;28;20043;-80
2024/03/04 05:11:21;;;;;;;30.17;15.20;;;;;;;;;;5065473;28;20024;-81
2024/03/04 05:13:49;;;;;;;29.90;14.50;;;;;;;;;;5050316;28;20149;-79
2024/03/04 05:16:18;;;;;;;26.88;13.73;;;;;;;;;;5086967;28;20044;-81
2024/03/04 05:18:43;;;;;;;26.02;12.75;;;;;;;;;;5084937;28;20024;-81
2024/03/04 05:21:10;;;;;;;28.80;15.23;;;;;;;;;;5071231;28;20040;-79
2024/03/04 05:26:29;;;;;;;30.42;13.70;;;;;;;;;;5078365;28;20067;-80
2024/03/04 05:28:56;;;;;;;29.33;13.93;;;;;;;;;;5063749;28;20075;-79
2024/03/04 05:31:23;;;;;;;26.55;13.68;;;;;;;;;;5068562;28;20033;-81
2024/03/04 05:33:54;;;;;;;27.55;14.23;;;;;;;;;;5076846;28;20055;-80
2024/03/04 05:36:23;;;;;;;27.75;13.95;;;;;;;;;;5074304;28;20021;-79
2024/03/04 05:38:52;;;;;;;32.10;14.05;;;;;;;;;;5086914;28;21152;-81
2024/03/04 05:41:18;;;;;;;29.27;14.23;;;;;;;;;;5078389;28;20082;-82
2024/03/04 05:43:44;;;;;;;29.50;14.27;;;;;;;;;;5086339;28;20033;-78
2024/03/04 05:46:13;;;;;;;22.20;11.30;;;;;;;;;;5090134;28;20044;-80
2024/03/04 05:48:40;;;;;;;31.55;15.32;;;;;;;;;;5085332;28;20024;-80
2024/03/04 05:51:09;;;;;;;31.77;16.27;;;;;;;;;;5079080;28;20040;-79
2024/03/04 05:53:42;;;;;;;38.30;16.38;;;;;;;;;;5098144;28;20570;-79
2024/03/04 05:56:08;;;;;;;34.17;16.67;;;;;;;;;;5064114;28;20144;-80
2024/03/04 05:58:36;;;;;;;54.45;16.30;;;;;;;;;;5081454;28;20073;-81
2024/03/04 06:01:03;;;;;;;40.22;16.00;;;;;;;;;;5099229;28;20059;-82
2024/03/04 06:03:30;;;;;;;53.83;15.82;;;;;;;;;;5098514;28;20036;-79
2024/03/04 06:06:02;;;;;;;61.13;15.73;;;;;;;;;;5065609;28;20046;-81
2024/03/04 06:08:33;;;;;;;36.95;16.38;;;;;;;;;;5046234;28;20368;-81
2024/03/04 06:10:59;;;;;;;39.85;19.17;;;;;;;;;;5062661;28;20060;-82
2024/03/04 06:13:30;;;;;;;38.92;17.40;;;;;;;;;;5062419;28;20039;-81
2024/03/04 06:16:18;;;;;;;52.88;18.52;;;;;;;;;;5062396;28;20498;-80
2024/03/04 06:18:44;;;;;;;39.75;17.63;;;;;;;;;;5059809;28;20035;-79
2024/03/04 06:21:11;;;;;;;38.80;17.88;;;;;;;;;;5078554;28;20047;-82
2024/03/04 06:23:39;;;;;;;37.70;16.70;;;;;;;;;;5076566;28;20093;-79
2024/03/04 06:26:10;;;;;;;24.88;12.60;;;;;;;;;;5076895;28;20029;-80
2024/03/04 06:28:40;;;;;;;38.88;17.50;;;;;;;;;;5060340;28;20079;-80
2024/03/04 06:31:06;;;;;;;49.10;15.80;;;;;;;;;;5044128;28;20084;-81
2024/03/04 06:33:33;;;;;;;32.53;16.27;;;;;;;;;;5060712;28;20040;-80
2024/03/04 06:36:02;;;;;;;128.43;19.45;;;;;;;;;;5044721;28;20380;-79
2024/03/04 06:38:28;;;;;;;90.82;18.65;;;;;;;;;;5077565;28;20037;-81
2024/03/04 06:40:54;;;;;;;58.40;15.45;;;;;;;;;;5076636;28;20380;-81
2024/03/04 06:43:31;;;;;;;28.90;13.63;;;;;;;;;;5062515;28;20067;-80
2024/03/04 06:46:03;;;;;;;47.53;15.95;;;;;;;;;;5056841;28;20132;-81
2024/03/04 06:48:31;;;;;;;43.45;16.48;;;;;;;;;;5057315;28;20035;-81
2024/03/04 06:51:02;;;;;;;39.88;17.10;;;;;;;;;;5053285;28;20459;-81
2024/03/04 06:53:30;;;;;;;49.80;18.63;;;;;;;;;;5087570;28;20039;-81
2024/03/04 06:55:58;;;;;;;54.45;19.23;;;;;;;;;;5065006;28;20024;-81
2024/03/04 06:58:23;;;;;;;58.70;17.00;;;;;;;;;;5082158;28;20404;-81
2024/03/04 07:00:51;;;;;;;49.55;18.30;;;;;;;;;;5067604;28;20178;-79
2024/03/04 07:03:17;;;;;;;29.58;16.05;;;;;;;;;;5082353;28;20531;-79
2024/03/04 07:05:45;;;;;;;55.83;17.48;;;;;;;;;;5092179;28;20062;-81
2024/03/04 07:08:18;;;;;;;44.30;16.65;;;;;;;;;;5110335;28;20040;-80
2024/03/04 07:10:46;;;;;;;33.53;15.75;;;;;;;;;;5096426;28;20096;-80
2024/03/04 07:13:13;;;;;;;35.17;18.02;;;;;;;;;;5076656;28;20047;-80
2024/03/04 07:15:41;;;;;;;59.20;17.10;;;;;;;;;;5075930;28;20081;-80
2024/03/04 07:18:07;;;;;;;40.00;16.17;;;;;;;;;;5078256;28;20036;-79
2024/03/04 07:20:37;;;;;;;50.17;16.17;;;;;;;;;;5061397;28;20033;-80
2024/03/04 07:23:04;;;;;;;38.53;16.48;;;;;;;;;;5070072;28;20036;-80
2024/03/04 07:25:46;;;;;;;38.13;16.40;;;;;;;;;;5068116;28;20062;-80
2024/03/04 07:28:16;;;;;;;48.83;14.68;;;;;;;;;;5085624;28;20037;-80
2024/03/04 07:30:51;;;;;;;33.65;14.23;;;;;;;;;;5069944;28;20045;-81
2024/03/04 07:33:22;;;;;;;30.50;14.32;;;;;;;;;;5053165;28;20032;-80
2024/03/04 07:35:51;;;;;;;32.67;14.82;;;;;;;;;;5085531;28;20079;-79
2024/03/04 07:38:17;;;;;;;37.75;13.73;;;;;;;;;;5095878;28;20031;-82
2024/03/04 07:40:46;;;;;;;24.70;13.20;;;;;;;;;;5043150;28;20043;-80
2024/03/04 07:43:13;;;;;;;47.03;14.80;;;;;;;;;;5075519;28;20085;-80
2024/03/04 07:45:40;;;;;;;66.43;13.30;;;;;;;;;;5041796;28;20041;-80
2024/03/04 07:48:30;;;;;;;27.23;14.13;;;;;;;;;;5075170;28;20036;-80
2024/03/04 07:51:05;;;;;;;38.60;14.30;;;;;;;;;;5041847;28;20097;-80
2024/03/04 07:53:32;;;;;;;25.73;13.88;;;;;;;;;;5058366;28;20111;-80
2024/03/04 07:56:02;;;;;;;33.80;13.98;;;;;;;;;;5058582;28;20111;-80
2024/03/04 07:58:28;;;;;;;26.67;13.83;;;;;;;;;;5075327;28;20036;-80
2024/03/04 08:00:54;;;;;;;34.70;13.43;;;;;;;;;;5059201;28;20435;-80
2024/03/04 08:03:38;;;;;;;26.63;13.95;;;;;;;;;;5044074;28;20049;-81
2024/03/04 08:06:23;;;;;;;22.08;12.85;;;;;;;;;;5078034;28;20032;-80
2024/03/04 08:08:50;;;;;;;26.17;12.45;;;;;;;;;;5078395;28;20070;-80
2024/03/04 08:11:16;;;;;;;20.65;10.45;;;;;;;;;;5076452;28;20033;-80
2024/03/04 08:13:46;;;;;;;18.98;10.60;;;;;;;;;;5058464;28;20085;-81
2024/03/04 08:16:14;;;;;;;18.25;9.65;;;;;;;;;;5074253;28;20025;-80
2024/03/04 08:18:41;;;;;;;19.60;10.57;;;;;;;;;;5057710;28;20021;-81
2024/03/04 08:21:20;;;;;;;20.30;10.85;;;;;;;;;;5074181;28;20043;-79
2024/03/04 08:24:00;;;;;;;19.45;10.75;;;;;;;;;;5062293;28;20743;-80
2024/03/04 08:26:28;;;;;;;23.58;11.90;;;;;;;;;;5074228;28;20064;-80
2024/03/04 08:29:07;;;;;;;19.45;12.15;;;;;;;;;;5057937;28;20078;-81
2024/03/04 08:31:44;;;;;;;21.02;11.50;;;;;;;;;;5076821;28;20040;-81
2024/03/04 08:34:13;;;;;;;25.77;11.60;;;;;;;;;;5051537;28;20568;-81
2024/03/04 08:36:38;;;;;;;23.25;12.30;;;;;;;;;;5087383;28;20469;-79
2024/03/04 08:39:04;;;;;;;27.48;11.05;;;;;;;;;;5050662;28;20037;-80
2024/03/04 08:41:30;;;;;;;21.13;10.85;;;;;;;;;;5098371;28;20142;-80
2024/03/04 08:44:06;;;;;;;16.90;10.25;;;;;;;;;;5093685;28;20198;-80
2024/03/04 08:46:35;;;;;;;22.08;10.57;;;;;;;;;;5066940;28;20086;-80
2024/03/04 08:49:09;;;;;;;19.17;10.77;;;;;;;;;;5071903;28;20111;-80
2024/03/04 08:51:38;;;;;;;16.95;9.57;;;;;;;;;;5079353;28;20036;-80
2024/03/04 08:54:07;;;;;;;18.15;10.10;;;;;;;;;;5066156;28;20044;-79
2024/03/04 08:56:33;;;;;;;16.02;9.40;;;;;;;;;;5082535;28;20024;-81
2024/03/04 08:58:59;;;;;;;18.15;9.52;;;;;;;;;;5086456;28;20066;-80
2024/03/04 09:01:25;;;;;;;15.90;8.57;;;;;;;;;;5100487;28;20027;-80
2024/03/04 09:03:51;;;;;;;14.75;9.13;;;;;;;;;;5084185;28;20562;-81
2024/03/04 09:06:30;;;;;;;16.73;9.40;;;;;;;;;;5071877;28;20044;-79
2024/03/04 09:09:08;;;;;;;17.00;9.82;;;;;;;;;;5096512;28;20495;-80
2024/03/04 09:11:36;;;;;;;16.20;9.77;;;;;;;;;;5083138;28;20093;-78
2024/03/04 09:14:02;;;;;;;16.52;10.10;;;;;;;;;;5062211;28;20419;-80
2024/03/04 09:16:27;;;;;;;23.33;10.40;;;;;;;;;;5090969;28;20020;-79
2024/03/04 09:18:53;;;;;;;17.63;9.82;;;;;;;;;;5094230;28;20024;-78
2024/03/04 09:21:24;;;;;;;23.55;10.30;;;;;;;;;;5085454;28;20043;-79
2024/03/04 09:23:54;;;;;;;18.55;9.57;;;;;;;;;;5048602;28;20039;-80
2024/03/04 09:26:19;;;;;;;18.58;10.57;;;;;;;;;;5070427;28;20104;-78
2024/03/04 09:28:50;;;;;;;19.50;10.85;;;;;;;;;;5117623;28;20065;-80
2024/03/04 09:31:21;;;;;;;17.08;10.13;;;;;;;;;;5099517;28;20053;-79
2024/03/04 09:33:52;;;;;;;18.13;10.25;;;;;;;;;;5115473;28;20103;-80
2024/03/04 09:36:19;;;;;;;18.35;10.52;;;;;;;;;;5061903;28;20040;-78
2024/03/04 09:38:47;;;;;;;21.80;10.93;;;;;;;;;;5077804;28;20037;-80
2024/03/04 09:41:15;;;;;;;18.08;11.00;;;;;;;;;;5095239;28;20027;-80
2024/03/04 09:43:44;;;;;;;18.23;9.52;;;;;;;;;;5071019;28;20050;-79
2024/03/04 09:46:10;;;;;;;18.70;9.98;;;;;;;;;;5061664;28;20028;-81
2024/03/04 09:48:37;;;;;;;17.70;10.40;;;;;;;;;;5059834;28;20373;-80
2024/03/04 09:51:09;;;;;;;13.13;7.43;;;;;;;;;;5062240;28;20094;-80
2024/03/04 09:53:42;;;;;;;16.60;9.43;;;;;;;;;;5076703;28;20039;-80
2024/03/04 09:56:07;;;;;;;16.70;9.77;;;;;;;;;;5066060;28;20039;-78
2024/03/04 09:58:36;;;;;;;16.30;9.38;;;;;;;;;;5075212;28;20028;-80
2024/03/04 10:01:02;;;;;;;;;;;;;;;;;;5088978;28;20050;-80
2024/03/04 10:03:28;;;;;;;18.33;10.02;;;;;;;;;;5078669;28;19935;-81
2024/03/04 10:05:54;;;;;;;17.23;8.95;;;;;;;;;;5090154;28;20032;-81
2024/03/04 10:08:20;;;;;;;15.93;9.77;;;;;;;;;;5108258;28;20039;-80
2024/03/04 10:10:52;;;;;;;21.35;9.70;;;;;;;;;;5069327;28;20104;-81
2024/03/04 10:13:18;;;;;;;20.40;10.35;;;;;;;;;;5081618;28;20043;-80
2024/03/04 10:15:45;;;;;;;18.58;11.10;;;;;;;;;;5069912;28;20035;-81
2024/03/04 10:18:12;;;;;;;16.20;9.57;;;;;;;;;;5081898;28;20016;-81
2024/03/04 10:20:38;;;;;;;19.70;10.35;;;;;;;;;;5078078;28;20020;-81
2024/03/04 10:23:04;;;;;;;18.00;9.90;;;;;;;;;;5090788;28;20056;-80
2024/03/04 10:25:29;;;;;;;20.02;9.90;;;;;;;;;;5098397;28;20016;-80
2024/03/04 10:27:55;;;;;;;19.20;10.32;;;;;;;;;;5074331;28;20028;-81
2024/03/04 10:30:21;;;;;;;19.52;10.90;;;;;;;;;;5107459;28;20128;-80
2024/03/04 10:32:57;;;;;;;20.25;12.07;;;;;;;;;;5087037;28;20028;-80
2024/03/04 10:35:23;;;;;;;19.02;11.38;;;;;;;;;;5067235;28;20036;-80
2024/03/04 10:37:50;;;;;;;18.60;10.13;;;;;;;;;;5089433;28;20027;-82
2024/03/04 10:40:19;;;;;;;17.13;9.88;;;;;;;;;;5070929;28;20028;-81
2024/03/04 10:42:46;;;;;;;17.67;10.45;;;;;;;;;;5066892;28;20036;-81
2024/03/04 10:45:12;;;;;;;18.85;8.98;;;;;;;;;;5084906;28;20024;-80
2024/03/04 10:47:42;;;;;;;20.02;10.55;;;;;;;;;;5083013;28;20032;-82
2024/03/04 10:50:08;;;;;;;18.95;10.43;;;;;;;;;;5064870;28;20103;-80
2024/03/04 10:52:35;;;;;;;16.52;10.48;;;;;;;;;;5094001;28;20064;-82
2024/03/04 10:55:02;;;;;;;18.45;10.60;;;;;;;;;;5097804;28;20407;-82
2024/03/04 10:57:33;;;;;;;17.25;10.95;;;;;;;;;;5101212;28;20028;-80
2024/03/04 11:00:17;;;;;;;23.52;12.02;;;;;;;;;;5073829;28;20099;-81
2024/03/04 11:03:01;;;;;;;19.35;11.15;;;;;;;;;;5096474;28;20119;-80
2024/03/04 11:05:28;;;;;;;20.90;11.40;;;;;;;;;;5088051;28;20024;-80
2024/03/04 11:07:58;;;;;;;19.95;11.50;;;;;;;;;;5061507;28;20032;-81
2024/03/04 11:10:27;;;;;;;22.67;11.15;;;;;;;;;;5080245;28;20035;-78
2024/03/04 11:13:16;;;;;;;19.02;10.48;;;;;;;;;;5060651;28;20048;-81
2024/03/04 11:15:48;;;;;;;19.98;11.25;;;;;;;;;;5061657;28;20055;-81
2024/03/04 11:18:28;;;;;;;19.10;11.60;;;;;;;;;;5079998;28;20058;-81
2024/03/04 11:20:54;;;;;;;18.55;11.57;;;;;;;;;;5074266;28;20032;-82
2024/03/04 11:23:21;;;;;;;19.55;11.38;;;;;;;;;;5115377;28;20059;-82
2024/03/04 11:25:47;;;;;;;21.35;11.40;;;;;;;;;;5092642;28;20032;-82
2024/03/04 11:28:18;;;;;;;17.90;11.18;;;;;;;;;;5055634;28;20039;-82
2024/03/04 11:30:47;;;;;;;20.75;11.93;;;;;;;;;;5071729;28;20056;-81
2024/03/04 11:33:32;;;;;;;19.95;11.35;;;;;;;;;;5066030;28;20032;-82
2024/03/04 11:35:58;;;;;;;21.70;11.38;;;;;;;;;;5090139;28;20411;-81
2024/03/04 11:38:27;;;;;;;23.77;11.85;;;;;;;;;;5082598;28;20019;-81
2024/03/04 11:40:52;;;;;;;;;;;;;;;;;;5069097;28;20039;-82
2024/03/04 11:43:37;;;;;;;22.65;11.32;;;;;;;;;;5086066;28;20564;-82
2024/03/04 11:46:02;;;;;;;22.02;12.65;;;;;;;;;;5087711;28;20031;-82
2024/03/04 11:48:31;;;;;;;23.48;11.85;;;;;;;;;;5104061;28;20046;-82
2024/03/04 11:50:59;;;;;;;21.38;11.80;;;;;;;;;;5071659;28;20055;-82
2024/03/04 11:53:28;;;;;;;22.27;12.20;;;;;;;;;;5080790;28;20035;-82
2024/03/04 11:55:54;;;;;;;20.33;12.50;;;;;;;;;;5089015;28;20016;-83
2024/03/04 11:58:20;;;;;;;18.45;11.30;;;;;;;;;;5076816;28;20032;-82
2024/03/04 12:00:47;;;;;;;20.52;12.05;;;;;;;;;;5064895;28;20065;-82
2024/03/04 12:03:15;;;;;;;19.23;11.63;;;;;;;;;;5086748;28;20115;-83
2024/03/04 12:05:46;;;;;;;22.55;11.40;;;;;;;;;;5091579;28;20088;-82
2024/03/04 12:08:13;;;;;;;17.05;10.93;;;;;;;;;;5066054;28;20042;-82
2024/03/04 12:10:41;;;;;;;22.40;12.35;;;;;;;;;;5088753;28;20028;-82
2024/03/04 12:13:10;;;;;;;18.40;11.55;;;;;;;;;;5067896;28;20048;-80
2024/03/04 12:15:41;;;;;;;19.13;11.02;;;;;;;;;;5075057;28;20039;-80
2024/03/04 12:18:15;;;;;;;20.88;11.95;;;;;;;;;;5113246;28;20071;-81
2024/03/04 12:20:42;;;;;;;20.17;11.43;;;;;;;;;;5084429;28;20169;-82
2024/03/04 12:23:07;;;;;;;22.42;12.93;;;;;;;;;;5083869;28;20025;-82
2024/03/04 12:25:34;;;;;;;24.60;12.70;;;;;;;;;;5085086;28;20024;-81
2024/03/04 12:27:59;;;;;;;22.65;12.48;;;;;;;;;;5051271;28;20060;-82
2024/03/04 12:30:26;;;;;;;19.77;12.82;;;;;;;;;;5052188;28;20040;-82
2024/03/04 12:32:52;;;;;;;21.05;12.05;;;;;;;;;;5051488;28;20032;-83
2024/03/04 12:35:26;;;;;;;20.40;12.45;;;;;;;;;;5084344;28;20028;-81
2024/03/04 12:37:53;;;;;;;18.40;11.48;;;;;;;;;;5055308;28;20063;-82
2024/03/04 12:40:20;;;;;;;20.52;12.13;;;;;;;;;;5071413;28;20126;-82
2024/03/04 12:42:57;;;;;;;23.63;13.23;;;;;;;;;;5071141;28;20109;-82
2024/03/04 12:45:25;;;;;;;23.45;14.68;;;;;;;;;;5085482;28;20032;-83
2024/03/04 12:47:55;;;;;;;24.98;13.00;;;;;;;;;;5067409;28;20028;-82
2024/03/04 12:50:21;;;;;;;21.67;12.65;;;;;;;;;;5069769;28;20035;-82
2024/03/04 12:52:49;;;;;;;22.45;13.57;;;;;;;;;;5068981;28;20032;-81
2024/03/04 12:55:17;;;;;;;21.30;13.38;;;;;;;;;;5069041;28;20050;-80
2024/03/04 12:57:43;;;;;;;21.75;12.82;;;;;;;;;;5086439;28;20433;-80
2024/03/04 13:00:12;;;;;;;24.38;14.65;;;;;;;;;;5071706;28;20037;-81
2024/03/04 13:02:41;;;;;;;19.45;12.43;;;;;;;;;;5086910;28;20035;-81
2024/03/04 13:05:07;;;;;;;22.15;13.48;;;;;;;;;;5072098;28;20036;-83
2024/03/04 13:07:33;;;;;;;23.55;13.43;;;;;;;;;;5073980;28;20509;-82
2024/03/04 13:09:59;;;;;;;26.30;13.98;;;;;;;;;;5114497;28;20031;-82
2024/03/04 13:12:24;;;;;;;22.10;13.80;;;;;;;;;;5084935;28;20016;-82
2024/03/04 13:14:50;;;;;;;23.30;12.70;;;;;;;;;;5083916;28;20052;-82
2024/03/04 13:17:15;;;;;;;24.45;13.55;;;;;;;;;;5082691;28;20047;-81
2024/03/04 13:19:41;;;;;;;25.38;14.95;;;;;;;;;;5101263;28;20036;-82
2024/03/04 13:22:07;;;;;;;22.25;13.73;;;;;;;;;;5083650;28;20036;-80
2024/03/04 13:24:32;;;;;;;21.73;13.82;;;;;;;;;;5093289;28;20032;-80
2024/03/04 13:26:59;;;;;;;21.90;13.23;;;;;;;;;;5084130;28;20035;-81
2024/03/04 13:29:24;;;;;;;24.80;14.23;;;;;;;;;;5069077;28;20028;-79
2024/03/04 13:31:50;;;;;;;21.65;13.32;;;;;;;;;;5058109;28;20044;-81
2024/03/04 13:34:15;;;;;;;20.90;12.93;;;;;;;;;;5088240;28;20490;-80
2024/03/04 13:36:41;;;;;;;22.52;13.77;;;;;;;;;;5048667;28;20028;-82
2024/03/04 13:39:07;;;;;;;23.83;14.35;;;;;;;;;;5064502;28;20052;-82
2024/03/04 13:41:32;;;;;;;24.55;13.88;;;;;;;;;;5048833;28;20061;-82
2024/03/04 13:43:58;;;;;;;23.33;14.50;;;;;;;;;;5080729;28;20547;-80
2024/03/04 13:46:23;;;;;;;23.65;14.10;;;;;;;;;;5081605;28;20491;-80
2024/03/04 13:48:50;;;;;;;26.88;15.32;;;;;;;;;;5064445;28;20096;-80
2024/03/04 13:51:15;;;;;;;28.98;14.95;;;;;;;;;;5066166;28;20049;-83
2024/03/04 13:53:41;;;;;;;24.35;15.25;;;;;;;;;;5047894;28;20068;-83
2024/03/04 13:56:07;;;;;;;23.70;14.70;;;;;;;;;;5063127;28;20025;-81
2024/03/04 13:58:33;;;;;;;27.15;14.82;;;;;;;;;;5063144;28;20032;-82
2024/03/04 14:00:59;;;;;;;26.38;15.23;;;;;;;;;;5048239;28;20059;-83
2024/03/04 14:03:25;;;;;;;25.23;14.48;;;;;;;;;;5047681;28;20430;-81
2024/03/04 14:05:50;;;;;;;26.30;14.88;;;;;;;;;;5063729;28;20028;-82
2024/03/04 14:08:16;;;;;;;25.80;14.02;;;;;;;;;;5055133;28;20048;-82
2024/03/04 14:10:43;;;;;;;28.45;16.60;;;;;;;;;;5068945;28;20032;-81
2024/03/04 14:13:13;;;;;;;27.08;14.85;;;;;;;;;;5068975;28;20070;-82
2024/03/04 14:15:39;;;;;;;28.27;15.13;;;;;;;;;;5084817;28;20028;-82
2024/03/04 14:18:05;;;;;;;26.52;14.52;;;;;;;;;;5068340;28;20062;-83
2024/03/04 14:20:31;;;;;;;26.33;15.18;;;;;;;;;;5085785;28;20182;-83
2024/03/04 14:22:56;;;;;;;28.98;15.45;;;;;;;;;;5080781;28;20510;-80
2024/03/04 14:25:22;;;;;;;29.08;16.08;;;;;;;;;;5077414;28;20372;-82